createdAt,value
2022-08-16T00:10:43.163Z,17.30
2022-08-16T00:30:42.710Z,14.20
2022-08-16T00:50:42.439Z,14.30
2022-08-16T01:10:42.162Z,12.20
2022-08-16T01:30:49.821Z,12.40
2022-08-16T01:51:09.550Z,14.20
2022-08-16T02:10:41.349Z,11.30
2022-08-16T02:30:43.422Z,12.10
2022-08-16T02:50:54.729Z,11.50
2022-08-16T03:10:40.474Z,12.30
2022-08-16T03:30:41.203Z,12.90
2022-08-16T03:50:39.921Z,12.20
2022-08-16T04:10:39.646Z,11.40
2022-08-16T04:30:40.938Z,13.40
2022-08-16T04:50:43.458Z,15.20
2022-08-16T05:10:39.827Z,13.20
2022-08-16T05:30:39.605Z,14.90
2022-08-16T05:50:38.262Z,16.70
2022-08-16T06:10:37.982Z,17.10
2022-08-16T06:30:43.334Z,19.30
2022-08-16T06:50:37.443Z,22.90
2022-08-16T07:10:37.196Z,17.60
2022-08-16T07:30:45.139Z,18.90
2022-08-16T07:50:56.999Z,14.70
2022-08-16T08:10:37.352Z,16.20
2022-08-16T08:30:50.512Z,13.60
2022-08-16T08:50:36.790Z,12.10
2022-08-16T09:10:39.499Z,11.40
2022-08-16T09:30:44.121Z,14.80
2022-08-16T09:50:38.243Z,9.20
2022-08-16T10:10:35.723Z,8.20
2022-08-16T10:30:39.050Z,7.70
2022-08-16T10:50:34.176Z,7.50
2022-08-16T11:30:38.669Z,6.30
2022-08-16T11:50:33.676Z,3.70
2022-08-16T12:10:34.150Z,5.60
2022-08-16T12:30:37.768Z,5.40
2022-08-16T12:50:33.603Z,5.50
2022-08-16T13:10:37.752Z,5.10
2022-08-16T13:30:35.844Z,5.60
2022-08-16T13:50:51.611Z,5.20
2022-08-16T14:10:31.532Z,7.00
2022-08-16T14:30:31.251Z,4.70
2022-08-16T14:50:30.955Z,5.90
2022-08-16T15:10:32.169Z,6.40
2022-08-16T15:30:58.485Z,5.70
2022-08-16T15:50:31.161Z,5.70
2022-08-16T16:10:30.902Z,6.20
2022-08-16T16:50:47.018Z,5.10
2022-08-16T17:10:49.471Z,7.30
2022-08-16T17:30:46.563Z,7.20
2022-08-16T17:50:46.303Z,7.20
2022-08-16T18:10:46.030Z,8.20
2022-08-16T18:30:50.940Z,9.10
2022-08-16T18:50:59.448Z,8.90
2022-08-16T19:11:12.055Z,13.80
2022-08-16T19:30:44.964Z,12.60
2022-08-16T19:50:44.663Z,15.70
2022-08-16T20:23:40.390Z,9.60
2022-08-16T22:11:01.271Z,13.70
2022-08-16T22:30:23.862Z,14.50
2022-08-16T22:50:23.559Z,15.30
2022-08-16T23:10:23.234Z,14.60
2022-08-16T23:30:23.012Z,14.10
2022-08-16T23:50:23.693Z,16.70
